Time;durP1;ratioP1;P1;durP2;ratioP2;P2;SDS_P1;SDS_P2;PMS_P1;PMS_P2;Temp;Humidity;BMP_temperature;BMP_pressure;BME280_temperature;BME280_humidity;BME280_pressure;Samples;Min_cycle;Max_cycle;Signal;HPM_P1;HPM_P2
2022/10/12 00:01:38;;;;;;;0.35;0.35;;;15.60;87.10;;;;;;4173328;28;20051;-69
2022/10/12 00:04:19;;;;;;;0.15;0.15;;;15.60;87.10;;;;;;4174006;28;20511;-69
2022/10/12 00:07:00;;;;;;;0.00;0.00;;;15.60;87.10;;;;;;4174583;28;20103;-70
2022/10/12 00:09:41;;;;;;;0.00;0.00;;;15.60;87.20;;;;;;4173348;28;20068;-70
2022/10/12 00:12:23;;;;;;;0.40;0.40;;;15.60;87.20;;;;;;4177448;28;20114;-69
2022/10/12 00:15:05;;;;;;;0.00;0.00;;;15.60;87.20;;;;;;4171977;28;20044;-69
2022/10/12 00:17:46;;;;;;;0.00;0.00;;;15.60;87.40;;;;;;4191704;28;20047;-69
2022/10/12 00:20:27;;;;;;;0.40;0.40;;;15.60;87.30;;;;;;4193758;28;20123;-69
2022/10/12 00:23:08;;;;;;;0.00;0.00;;;15.50;87.40;;;;;;4193985;28;20043;-70
2022/10/12 00:25:49;;;;;;;0.00;0.00;;;15.60;87.50;;;;;;4204400;28;20101;-70
2022/10/12 00:28:31;;;;;;;0.00;0.00;;;15.50;87.40;;;;;;4193507;28;20052;-70
2022/10/12 00:31:13;;;;;;;0.00;0.00;;;15.50;87.50;;;;;;4193415;28;20444;-70
2022/10/12 00:33:54;;;;;;;0.10;0.10;;;15.50;87.50;;;;;;4185392;28;20036;-71
2022/10/12 00:36:36;;;;;;;0.00;0.00;;;15.50;87.50;;;;;;4193659;28;20411;-70
2022/10/12 00:39:17;;;;;;;0.00;0.00;;;15.50;87.50;;;;;;4164057;28;20044;-70
2022/10/12 00:41:58;;;;;;;0.00;0.00;;;15.50;87.50;;;;;;4175972;28;20133;-70
2022/10/12 00:44:43;;;;;;;0.00;0.00;;;15.50;87.50;;;;;;4163350;28;20047;-70
2022/10/12 00:47:28;;;;;;;0.00;0.00;;;15.50;87.50;;;;;;4159809;28;20056;-70
2022/10/12 00:50:14;;;;;;;0.00;0.00;;;15.50;87.60;;;;;;4159914;28;20106;-70
2022/10/12 00:53:00;;;;;;;0.00;0.00;;;15.50;87.60;;;;;;4159723;28;20056;-70
2022/10/12 00:55:47;;;;;;;0.00;0.00;;;15.50;87.70;;;;;;4175674;28;20052;-70
2022/10/12 00:58:30;;;;;;;0.00;0.00;;;15.50;87.70;;;;;;4164071;28;20060;-69
2022/10/12 01:01:12;;;;;;;0.00;0.00;;;15.40;87.70;;;;;;4183765;28;20109;-70
2022/10/12 01:03:53;;;;;;;0.05;0.05;;;15.40;87.60;;;;;;4192475;28;20063;-69
2022/10/12 01:06:35;;;;;;;0.55;0.55;;;15.40;87.70;;;;;;4180435;28;20055;-67
2022/10/12 01:09:16;;;;;;;0.10;0.10;;;15.40;88.70;;;;;;4176035;28;20110;-68
2022/10/12 01:11:57;;;;;;;0.00;0.00;;;15.40;88.00;;;;;;4175362;28;20043;-67
2022/10/12 01:14:38;;;;;;;;;;;15.40;87.70;;;;;;4160695;28;20124;-68
2022/10/12 01:17:34;;;;;;;0.00;0.00;;;15.40;87.60;;;;;;4151362;28;20382;-68
2022/10/12 01:20:39;;;;;;;0.00;0.00;;;15.40;87.60;;;;;;4158948;28;20061;-69
2022/10/12 01:24:02;;;;;;;4.75;2.65;;;15.40;87.80;;;;;;4163532;28;20446;-68
2022/10/12 01:27:02;;;;;;;0.40;0.40;;;15.40;87.80;;;;;;4174857;28;20830;-69
2022/10/12 01:30:10;;;;;;;0.10;0.10;;;15.40;87.80;;;;;;4191841;28;20502;-70
2022/10/12 01:33:02;;;;;;;0.00;0.00;;;15.40;87.80;;;;;;4192574;28;20054;-69
2022/10/12 01:35:51;;;;;;;0.00;0.00;;;15.40;87.80;;;;;;4192225;28;20163;-68
2022/10/12 01:38:48;;;;;;;0.00;0.00;;;15.40;87.80;;;;;;4192592;28;20596;-68
2022/10/12 01:41:32;;;;;;;0.00;0.00;;;15.30;87.70;;;;;;4174847;28;20418;-69
2022/10/12 01:44:20;;;;;;;0.30;0.30;;;15.30;87.80;;;;;;4175221;28;20063;-69
2022/10/12 01:47:03;;;;;;;0.10;0.10;;;15.40;87.80;;;;;;4175349;28;20055;-69
2022/10/12 01:49:44;;;;;;;0.00;0.00;;;15.30;87.80;;;;;;4175426;28;20122;-68
2022/10/12 01:52:29;;;;;;;0.00;0.00;;;15.30;87.70;;;;;;4175225;28;20105;-69
2022/10/12 01:55:32;;;;;;;0.00;0.00;;;15.30;87.80;;;;;;4164887;28;20127;-69
2022/10/12 01:58:26;;;;;;;0.00;0.00;;;15.30;87.80;;;;;;4171113;28;20102;-69
2022/10/12 02:01:17;;;;;;;0.00;0.00;;;15.30;87.90;;;;;;4175004;28;20051;-70
2022/10/12 02:04:03;;;;;;;0.00;0.00;;;15.30;87.70;;;;;;4167530;28;20063;-69
2022/10/12 02:06:48;;;;;;;0.00;0.00;;;15.30;87.70;;;;;;4175962;28;20510;-69
2022/10/12 02:09:31;;;;;;;0.00;0.00;;;15.30;87.80;;;;;;4174863;28;20179;-70
2022/10/12 02:12:16;;;;;;;0.00;0.00;;;15.30;87.80;;;;;;4175707;28;20128;-69
2022/10/12 02:15:02;;;;;;;0.00;0.00;;;15.30;87.80;;;;;;4175646;28;20048;-69
2022/10/12 02:17:46;;;;;;;0.00;0.00;;;15.30;87.80;;;;;;4175486;28;20808;-69
2022/10/12 02:20:29;;;;;;;0.00;0.00;;;15.30;87.80;;;;;;4175345;28;20068;-69
2022/10/12 02:23:28;;;;;;;0.52;0.52;;;15.30;87.80;;;;;;4165165;28;20048;-69
2022/10/12 02:26:11;;;;;;;;;;;15.20;87.70;;;;;;4174447;28;20052;-69
2022/10/12 02:28:53;;;;;;;0.10;0.10;;;15.30;87.70;;;;;;4174755;28;19975;-69
2022/10/12 02:31:41;;;;;;;0.32;0.20;;;15.20;87.60;;;;;;4190275;28;20056;-69
2022/10/12 02:34:28;;;;;;;0.20;0.20;;;15.30;87.70;;;;;;4190778;28;20051;-69
2022/10/12 02:37:16;;;;;;;0.05;0.05;;;15.20;87.70;;;;;;4157734;28;20649;-70
2022/10/12 02:40:04;;;;;;;0.00;0.00;;;15.20;87.80;;;;;;4157519;28;20160;-70
2022/10/12 02:42:50;;;;;;;0.00;0.00;;;15.20;87.80;;;;;;4177476;28;20209;-69
2022/10/12 02:45:50;;;;;;;0.00;0.00;;;15.20;87.90;;;;;;4190601;28;20167;-69
2022/10/12 02:48:31;;;;;;;0.00;0.00;;;15.20;87.80;;;;;;4190070;28;20059;-69
2022/10/12 02:51:13;;;;;;;0.00;0.00;;;15.20;87.90;;;;;;4190444;28;20403;-70
2022/10/12 02:53:56;;;;;;;0.00;0.00;;;15.20;87.80;;;;;;4178920;28;20051;-71
2022/10/12 02:56:42;;;;;;;0.00;0.00;;;15.20;87.90;;;;;;4186984;28;20051;-68
2022/10/12 02:59:23;;;;;;;0.03;0.03;;;15.20;87.90;;;;;;4150427;28;20052;-68
2022/10/12 03:02:04;;;;;;;0.10;0.10;;;15.20;87.90;;;;;;4174480;28;20079;-69
2022/10/12 03:04:45;;;;;;;0.00;0.00;;;15.20;87.80;;;;;;4190984;28;20376;-70
2022/10/12 03:07:26;;;;;;;0.00;0.00;;;15.20;87.90;;;;;;4191389;28;20539;-71
2022/10/12 03:10:10;;;;;;;0.00;0.00;;;15.20;87.90;;;;;;4187544;28;20051;-70
2022/10/12 03:12:50;;;;;;;0.00;0.00;;;15.20;87.90;;;;;;4159532;28;20150;-70
2022/10/12 03:15:32;;;;;;;0.00;0.00;;;15.10;87.90;;;;;;4158149;28;20060;-70
2022/10/12 03:18:12;;;;;;;0.00;0.00;;;15.10;87.90;;;;;;4174378;28;20064;-70
2022/10/12 03:20:53;;;;;;;0.00;0.00;;;15.10;87.90;;;;;;4173801;28;20048;-69
2022/10/12 03:23:34;;;;;;;0.00;0.00;;;15.10;88.80;;;;;;4175301;28;20294;-70
2022/10/12 03:26:16;;;;;;;0.00;0.00;;;15.10;87.90;;;;;;4179421;28;20493;-70
2022/10/12 03:28:57;;;;;;;0.00;0.00;;;15.10;87.90;;;;;;4191066;28;20163;-69
2022/10/12 03:31:38;;;;;;;0.20;0.20;;;15.10;87.90;;;;;;4190475;28;20067;-68
2022/10/12 03:34:19;;;;;;;0.00;0.00;;;15.10;87.90;;;;;;4190556;28;20387;-69
2022/10/12 03:37:00;;;;;;;0.00;0.00;;;15.10;88.00;;;;;;4191583;28;20190;-68
2022/10/12 03:39:41;;;;;;;0.00;0.00;;;15.10;87.90;;;;;;4191061;28;20064;-70
2022/10/12 03:42:24;;;;;;;0.10;0.10;;;15.10;87.90;;;;;;4173729;28;20412;-69
2022/10/12 03:45:05;;;;;;;0.00;0.00;;;15.10;87.90;;;;;;4174047;28;20052;-69
2022/10/12 03:47:46;;;;;;;0.00;0.00;;;15.10;87.90;;;;;;4173536;28;20056;-69
2022/10/12 03:50:28;;;;;;;0.00;0.00;;;15.10;88.00;;;;;;4173543;28;20068;-69
2022/10/12 03:53:09;;;;;;;0.00;0.00;;;15.10;87.90;;;;;;4176873;28;20118;-68
2022/10/12 03:55:50;;;;;;;0.00;0.00;;;15.00;87.80;;;;;;4193719;28;20121;-69
2022/10/12 03:58:33;;;;;;;0.00;0.00;;;15.10;88.10;;;;;;4193731;28;20063;-69
2022/10/12 04:01:14;;;;;;;0.00;0.00;;;15.00;87.90;;;;;;4176799;28;20049;-69
2022/10/12 04:03:55;;;;;;;0.10;0.10;;;15.00;87.90;;;;;;4177284;28;20044;-68
2022/10/12 04:06:35;;;;;;;0.00;0.00;;;15.00;87.90;;;;;;4148422;28;20057;-69
2022/10/12 04:09:16;;;;;;;0.52;0.52;;;15.00;88.00;;;;;;4177728;28;20052;-69
2022/10/12 04:11:57;;;;;;;0.00;0.00;;;15.00;87.90;;;;;;4193398;28;20055;-71
2022/10/12 04:14:40;;;;;;;0.03;0.03;;;15.00;87.90;;;;;;4192430;28;20227;-69
2022/10/12 04:17:21;;;;;;;0.25;0.20;;;15.00;88.00;;;;;;4192832;28;20047;-71
2022/10/12 04:20:02;;;;;;;0.00;0.00;;;15.00;88.00;;;;;;4180146;28;20052;-70
2022/10/12 04:22:42;;;;;;;0.00;0.00;;;15.00;88.00;;;;;;4193533;28;20051;-70
2022/10/12 04:25:23;;;;;;;0.00;0.00;;;15.00;88.00;;;;;;4192945;28;20141;-69
2022/10/12 04:28:08;;;;;;;0.00;0.00;;;15.00;88.00;;;;;;4192455;28;20059;-69
2022/10/12 04:30:51;;;;;;;0.00;0.00;;;15.00;88.00;;;;;;4192078;28;20170;-68
2022/10/12 04:33:31;;;;;;;0.00;0.00;;;14.90;88.00;;;;;;4180470;28;20439;-69
2022/10/12 04:36:12;;;;;;;0.00;0.00;;;14.90;88.00;;;;;;4176914;28;20071;-68
2022/10/12 04:38:53;;;;;;;0.00;0.00;;;15.00;88.10;;;;;;4159340;28;20146;-69
2022/10/12 04:41:39;;;;;;;0.00;0.00;;;14.90;88.00;;;;;;4174862;28;20130;-69
2022/10/12 04:44:20;;;;;;;0.00;0.00;;;14.90;88.10;;;;;;4187204;28;20048;-69
2022/10/12 04:47:03;;;;;;;0.00;0.00;;;14.90;88.10;;;;;;4192829;28;20131;-69
2022/10/12 04:49:44;;;;;;;0.00;0.00;;;14.90;88.10;;;;;;4191747;28;20055;-69
2022/10/12 04:52:24;;;;;;;0.00;0.00;;;14.90;88.10;;;;;;4191668;28;20125;-70
2022/10/12 04:55:06;;;;;;;0.10;0.10;;;14.90;88.10;;;;;;4192819;28;20047;-69
2022/10/12 04:57:48;;;;;;;0.00;0.00;;;14.90;88.10;;;;;;4203186;28;20052;-69
2022/10/12 05:00:30;;;;;;;0.00;0.00;;;14.90;88.10;;;;;;4175178;28;20056;-69
2022/10/12 05:03:12;;;;;;;0.00;0.00;;;14.90;88.20;;;;;;4175274;28;20052;-69
2022/10/12 05:05:53;;;;;;;0.00;0.00;;;14.90;88.30;;;;;;4160014;28;20052;-69
2022/10/12 05:08:34;;;;;;;1.58;1.02;;;14.90;88.20;;;;;;4175485;28;20087;-69
2022/10/12 05:11:14;;;;;;;0.00;0.00;;;14.90;88.40;;;;;;4175785;28;20055;-69
2022/10/12 05:13:55;;;;;;;0.00;0.00;;;14.80;88.20;;;;;;4180674;28;20306;-70
2022/10/12 05:16:36;;;;;;;0.00;0.00;;;14.80;88.20;;;;;;4192704;28;20051;-70
2022/10/12 05:19:18;;;;;;;0.00;0.00;;;14.80;88.30;;;;;;4175070;28;20176;-70
2022/10/12 05:21:59;;;;;;;0.30;0.30;;;14.80;88.30;;;;;;4159431;28;20044;-70
2022/10/12 05:24:40;;;;;;;0.00;0.00;;;14.80;88.30;;;;;;4175051;28;20105;-70
2022/10/12 05:27:21;;;;;;;2.35;1.23;;;14.80;88.30;;;;;;4175355;28;20063;-69
2022/10/12 05:30:03;;;;;;;0.00;0.00;;;14.80;88.30;;;;;;4178847;28;20107;-69
2022/10/12 05:32:43;;;;;;;;;;;14.80;88.30;;;;;;4175519;28;20055;-69
2022/10/12 05:35:25;;;;;;;0.00;0.00;;;14.80;88.30;;;;;;4163154;28;19932;-70
2022/10/12 05:38:06;;;;;;;0.00;0.00;;;14.80;88.40;;;;;;4158411;28;20256;-69
2022/10/12 05:40:47;;;;;;;0.10;0.10;;;14.80;88.40;;;;;;4163744;28;20059;-70
2022/10/12 05:43:28;;;;;;;0.20;0.20;;;14.80;88.40;;;;;;4176872;28;20056;-70
2022/10/12 05:46:09;;;;;;;0.00;0.00;;;14.80;88.50;;;;;;4191232;28;20047;-71
2022/10/12 05:48:54;;;;;;;0.00;0.00;;;14.80;88.60;;;;;;4179600;28;20047;-69
2022/10/12 05:51:37;;;;;;;0.00;0.00;;;14.80;89.40;;;;;;4194576;28;20075;-69
2022/10/12 05:54:18;;;;;;;0.00;0.00;;;14.80;88.50;;;;;;4158780;28;20627;-71
2022/10/12 05:56:59;;;;;;;0.43;0.43;;;14.70;88.40;;;;;;4156435;28;20168;-70
2022/10/12 05:59:40;;;;;;;0.00;0.00;;;14.80;88.40;;;;;;4158680;28;20064;-66
2022/10/12 06:02:21;;;;;;;0.15;0.15;;;14.80;88.80;;;;;;4174819;28;20044;-71
2022/10/12 06:05:02;;;;;;;0.00;0.00;;;14.80;89.90;;;;;;4152486;28;20048;-69
2022/10/12 06:07:44;;;;;;;0.00;0.00;;;14.80;88.80;;;;;;4174730;28;20048;-69
2022/10/12 06:10:25;;;;;;;0.52;0.52;;;14.90;88.60;;;;;;4178645;28;20055;-68
2022/10/12 06:13:09;;;;;;;0.00;0.00;;;14.80;88.50;;;;;;4159765;28;20067;-68
2022/10/12 06:15:50;;;;;;;0.00;0.00;;;14.80;88.40;;;;;;4160880;28;20047;-69
2022/10/12 06:18:31;;;;;;;0.00;0.00;;;14.80;88.50;;;;;;4178575;28;20110;-69
2022/10/12 06:21:12;;;;;;;0.10;0.10;;;14.80;88.50;;;;;;4165161;28;20167;-68
2022/10/12 06:24:13;;;;;;;0.00;0.00;;;14.80;88.40;;;;;;4169916;28;20506;-68
2022/10/12 06:26:54;;;;;;;0.00;0.00;;;14.80;88.40;;;;;;4178309;28;20466;-68
2022/10/12 06:29:37;;;;;;;0.00;0.00;;;14.80;88.50;;;;;;4179122;28;20507;-67
2022/10/12 06:32:18;;;;;;;0.00;0.00;;;14.80;88.40;;;;;;4179028;28;20052;-66
2022/10/12 06:34:59;;;;;;;0.77;0.77;;;14.80;88.40;;;;;;4177755;28;20075;-67
2022/10/12 06:37:40;;;;;;;0.22;0.22;;;14.80;88.40;;;;;;4178955;28;20510;-68
2022/10/12 06:40:31;;;;;;;0.00;0.00;;;14.70;88.40;;;;;;4162061;28;20072;-69
2022/10/12 06:43:13;;;;;;;0.00;0.00;;;14.70;88.50;;;;;;4173989;28;20063;-69
2022/10/12 06:45:54;;;;;;;0.00;0.00;;;14.70;89.40;;;;;;4160693;28;20055;-68
2022/10/12 06:48:35;;;;;;;0.00;0.00;;;14.80;88.60;;;;;;4186269;28;20044;-69
2022/10/12 06:51:15;;;;;;;0.00;0.00;;;14.80;88.60;;;;;;4190760;28;20510;-68
2022/10/12 06:53:57;;;;;;;0.03;0.03;;;14.70;88.60;;;;;;4166173;28;20287;-67
2022/10/12 06:56:39;;;;;;;;;;;14.70;88.60;;;;;;4157130;28;20055;-69
2022/10/12 06:59:21;;;;;;;0.00;0.00;;;14.80;88.60;;;;;;4180395;28;20279;-68
2022/10/12 07:02:02;;;;;;;0.10;0.10;;;14.70;88.60;;;;;;4191055;28;20055;-68
2022/10/12 07:04:44;;;;;;;0.00;0.00;;;14.70;89.40;;;;;;4191665;28;20046;-68
2022/10/12 07:07:25;;;;;;;0.00;0.00;;;14.70;88.60;;;;;;4191423;28;20067;-68
2022/10/12 07:10:07;;;;;;;0.80;0.80;;;14.70;88.70;;;;;;4191235;28;20060;-69
2022/10/12 07:12:49;;;;;;;0.00;0.00;;;14.70;88.60;;;;;;4178490;28;20051;-68
2022/10/12 07:15:30;;;;;;;0.10;0.10;;;14.70;88.60;;;;;;4190581;28;20063;-69
2022/10/12 07:18:11;;;;;;;0.00;0.00;;;14.70;88.60;;;;;;4183467;28;20150;-70
2022/10/12 07:20:53;;;;;;;0.10;0.10;;;14.70;88.60;;;;;;4159266;28;20522;-69
2022/10/12 07:23:36;;;;;;;0.00;0.00;;;14.70;88.80;;;;;;4171224;28;20214;-69
2022/10/12 07:26:20;;;;;;;0.00;0.00;;;14.70;88.60;;;;;;4188988;28;20068;-70
2022/10/12 07:29:02;;;;;;;0.00;0.00;;;14.70;88.60;;;;;;4190932;28;20063;-68
2022/10/12 07:31:43;;;;;;;0.00;0.00;;;14.70;88.60;;;;;;4191029;28;20048;-67
2022/10/12 07:34:29;;;;;;;0.10;0.10;;;14.70;88.60;;;;;;4181415;28;20052;-70
2022/10/12 07:37:11;;;;;;;0.00;0.00;;;14.70;88.60;;;;;;4185527;28;20044;-70
2022/10/12 07:39:55;;;;;;;0.80;0.80;;;14.70;88.60;;;;;;4191855;28;20051;-68
2022/10/12 07:42:37;;;;;;;0.00;0.00;;;14.70;88.60;;;;;;4185237;28;20206;-68
2022/10/12 07:45:40;;;;;;;0.00;0.00;;;14.70;88.60;;;;;;4188274;28;20483;-68
2022/10/12 07:48:20;;;;;;;0.00;0.00;;;14.70;88.60;;;;;;4190957;28;20593;-72
2022/10/12 07:51:04;;;;;;;0.00;0.00;;;14.70;88.60;;;;;;4177147;28;20056;-71
2022/10/12 07:53:45;;;;;;;1.60;0.75;;;14.70;88.60;;;;;;4150381;28;20051;-71
2022/10/12 07:56:26;;;;;;;0.00;0.00;;;14.70;88.60;;;;;;4174770;28;20056;-73
2022/10/12 07:59:07;;;;;;;0.20;0.20;;;14.70;88.60;;;;;;4181384;28;20047;-72
2022/10/12 08:01:49;;;;;;;0.20;0.20;;;14.70;88.70;;;;;;4189962;28;20514;-72
2022/10/12 08:04:31;;;;;;;0.00;0.00;;;14.70;88.80;;;;;;4163339;28;20606;-72
2022/10/12 08:07:12;;;;;;;0.00;0.00;;;14.70;88.90;;;;;;4192045;28;20056;-72
2022/10/12 08:09:53;;;;;;;0.70;0.70;;;14.80;89.00;;;;;;4190807;28;20047;-73
2022/10/12 08:12:33;;;;;;;0.10;0.10;;;14.80;89.00;;;;;;4174391;28;20063;-71
2022/10/12 08:15:14;;;;;;;0.00;0.00;;;14.80;89.20;;;;;;4191095;28;20055;-68
2022/10/12 08:17:57;;;;;;;0.00;0.00;;;14.90;89.40;;;;;;4189772;28;20051;-69
2022/10/12 08:20:39;;;;;;;0.00;0.00;;;14.90;89.50;;;;;;4189317;28;20420;-68
2022/10/12 08:23:20;;;;;;;0.00;0.00;;;14.90;89.60;;;;;;4189867;28;20043;-73
2022/10/12 08:26:02;;;;;;;0.00;0.00;;;14.90;89.50;;;;;;4160344;28;20498;-73
2022/10/12 08:28:43;;;;;;;0.08;0.08;;;14.90;89.40;;;;;;4174302;28;20051;-73
2022/10/12 08:31:25;;;;;;;0.10;0.10;;;14.90;89.30;;;;;;4179972;28;20507;-71
2022/10/12 08:34:07;;;;;;;0.00;0.00;;;14.90;89.10;;;;;;4150335;28;20051;-73
2022/10/12 08:36:50;;;;;;;0.00;0.00;;;14.90;89.10;;;;;;4182717;28;20044;-74
2022/10/12 08:39:31;;;;;;;0.00;0.00;;;14.90;89.00;;;;;;4188552;28;20055;-68
2022/10/12 08:42:24;;;;;;;0.00;0.00;;;15.00;88.90;;;;;;4178475;28;20125;-74
2022/10/12 08:45:24;;;;;;;0.00;0.00;;;15.00;88.90;;;;;;4173632;28;20066;-67
2022/10/12 08:48:14;;;;;;;0.10;0.10;;;15.00;88.70;;;;;;4189762;28;20514;-67
2022/10/12 08:51:00;;;;;;;0.00;0.00;;;15.00;88.60;;;;;;4188988;28;20043;-67
2022/10/12 08:53:47;;;;;;;0.00;0.00;;;15.10;88.50;;;;;;4173660;28;20058;-67
2022/10/12 08:56:29;;;;;;;0.00;0.00;;;15.10;88.30;;;;;;4163329;28;20224;-68
2022/10/12 08:59:13;;;;;;;0.15;0.15;;;15.10;88.00;;;;;;4160373;28;20095;-68
2022/10/12 09:02:05;;;;;;;0.20;0.20;;;15.20;87.60;;;;;;4172868;28;20076;-69
2022/10/12 09:04:53;;;;;;;0.32;0.32;;;15.20;86.80;;;;;;4173141;28;20052;-68
2022/10/12 09:07:42;;;;;;;0.38;0.38;;;15.20;86.40;;;;;;4173935;28;20483;-69
2022/10/12 09:10:33;;;;;;;2.85;2.00;;;15.20;86.40;;;;;;4202761;28;20059;-70
2022/10/12 09:13:30;;;;;;;0.00;0.00;;;15.20;86.60;;;;;;4172768;28;20063;-73
2022/10/12 09:16:20;;;;;;;0.00;0.00;;;15.20;86.70;;;;;;4174878;28;20113;-74
2022/10/12 09:19:06;;;;;;;0.20;0.20;;;15.20;86.90;;;;;;4159677;28;20051;-72
2022/10/12 09:21:49;;;;;;;1.92;1.77;;;15.20;87.00;;;;;;4177337;28;20503;-69
2022/10/12 09:24:38;;;;;;;0.10;0.10;;;15.20;87.50;;;;;;4188556;28;20062;-68
2022/10/12 09:27:21;;;;;;;0.43;0.43;;;15.20;87.60;;;;;;4189608;28;20099;-69
2022/10/12 09:30:05;;;;;;;0.20;0.20;;;15.20;87.40;;;;;;4188569;28;20097;-69
2022/10/12 09:33:05;;;;;;;;;;;15.20;87.40;;;;;;4189337;28;20506;-68
2022/10/12 09:35:46;;;;;;;0.20;0.20;;;15.20;87.50;;;;;;4172038;28;19934;-69
2022/10/12 09:38:27;;;;;;;0.20;0.20;;;15.20;87.30;;;;;;4188908;28;20127;-68
2022/10/12 09:41:19;;;;;;;0.57;0.57;;;15.20;87.20;;;;;;4189625;28;20071;-68
2022/10/12 09:44:03;;;;;;;0.00;0.00;;;15.20;87.00;;;;;;4167669;28;20068;-68
2022/10/12 09:46:49;;;;;;;0.00;0.00;;;15.20;86.60;;;;;;4189740;28;20617;-68
2022/10/12 09:49:41;;;;;;;0.00;0.00;;;15.20;86.10;;;;;;4177047;28;20113;-70
2022/10/12 09:52:23;;;;;;;;;;;15.20;85.50;;;;;;4189058;28;21127;-72
2022/10/12 09:55:18;;;;;;;0.00;0.00;;;15.20;85.50;;;;;;4181123;28;20406;-70
2022/10/12 09:58:01;;;;;;;0.00;0.00;;;15.20;85.20;;;;;;4160000;28;20052;-71
2022/10/12 10:00:43;;;;;;;0.10;0.10;;;15.20;85.30;;;;;;4200966;28;20131;-69
2022/10/12 10:03:25;;;;;;;0.30;0.30;;;15.20;85.30;;;;;;4176726;28;20145;-69
2022/10/12 10:06:08;;;;;;;0.00;0.00;;;15.20;85.30;;;;;;4182279;28;20059;-69
2022/10/12 10:08:50;;;;;;;0.00;0.00;;;15.20;85.40;;;;;;4172539;28;20165;-69
2022/10/12 10:11:32;;;;;;;0.93;0.90;;;15.30;85.40;;;;;;4172509;28;20132;-68
2022/10/12 10:14:15;;;;;;;0.00;0.00;;;15.30;85.40;;;;;;4187846;28;20047;-68
2022/10/12 10:16:58;;;;;;;0.40;0.40;;;15.30;85.70;;;;;;4171785;28;20507;-68
2022/10/12 10:19:39;;;;;;;0.00;0.00;;;15.30;85.70;;;;;;4174835;28;20048;-68
2022/10/12 10:22:20;;;;;;;0.00;0.00;;;15.30;85.70;;;;;;4158542;28;20171;-68
2022/10/12 10:25:02;;;;;;;0.03;0.03;;;15.30;85.70;;;;;;4171897;28;20910;-68
2022/10/12 10:27:43;;;;;;;0.20;0.20;;;15.40;85.50;;;;;;4171851;28;20064;-67
2022/10/12 10:30:26;;;;;;;0.00;0.00;;;15.40;85.50;;;;;;4189295;28;20522;-67
2022/10/12 10:33:17;;;;;;;0.75;0.75;;;15.40;85.40;;;;;;4157527;28;20286;-68
2022/10/12 10:36:03;;;;;;;1.25;1.15;;;15.40;85.30;;;;;;4188088;28;20056;-67
2022/10/12 10:38:55;;;;;;;0.00;0.00;;;15.40;85.20;;;;;;4188651;28;20486;-69
2022/10/12 10:41:39;;;;;;;0.00;0.00;;;15.40;84.80;;;;;;4188927;28;20071;-68
2022/10/12 10:44:29;;;;;;;0.00;0.00;;;15.50;84.70;;;;;;4172948;28;20064;-70
2022/10/12 10:47:13;;;;;;;0.08;0.08;;;15.50;84.50;;;;;;4171639;28;20047;-67
2022/10/12 10:49:58;;;;;;;0.00;0.00;;;15.50;84.40;;;;;;4189030;28;20514;-67
2022/10/12 10:52:38;;;;;;;0.00;0.00;;;15.60;84.30;;;;;;4172138;28;20064;-67
2022/10/12 10:55:21;;;;;;;0.00;0.00;;;15.60;84.00;;;;;;4176661;28;20075;-67
2022/10/12 10:58:06;;;;;;;16.58;2.92;;;15.70;83.80;;;;;;4171874;28;20454;-67
2022/10/12 11:00:53;;;;;;;0.15;0.15;;;15.70;83.40;;;;;;4172454;28;20134;-68
2022/10/12 11:03:42;;;;;;;0.00;0.00;;;15.80;82.90;;;;;;4188488;28;20055;-68
2022/10/12 11:06:38;;;;;;;0.00;0.00;;;15.80;82.60;;;;;;4188798;28;20763;-68
2022/10/12 11:09:21;;;;;;;0.00;0.00;;;15.80;82.20;;;;;;4183364;28;20054;-67
2022/10/12 11:12:08;;;;;;;0.00;0.00;;;15.90;82.10;;;;;;4171858;28;20510;-68
2022/10/12 11:14:52;;;;;;;1.55;0.95;;;15.90;81.50;;;;;;4166601;28;20059;-68
2022/10/12 11:17:35;;;;;;;0.00;0.00;;;15.90;81.50;;;;;;4158632;28;20067;-68
2022/10/12 11:20:34;;;;;;;0.00;0.00;;;16.00;81.20;;;;;;4187076;28;20190;-68
2022/10/12 11:23:23;;;;;;;0.00;0.00;;;16.00;80.90;;;;;;4188299;28;20052;-68
2022/10/12 11:26:16;;;;;;;0.00;0.00;;;16.10;80.70;;;;;;4187451;28;20064;-68
2022/10/12 11:29:00;;;;;;;0.00;0.00;;;16.10;80.60;;;;;;4187391;28;20072;-69
2022/10/12 11:31:46;;;;;;;0.00;0.00;;;16.20;80.90;;;;;;4159473;28;20511;-67
2022/10/12 11:34:28;;;;;;;0.00;0.00;;;16.20;80.70;;;;;;4172686;28;20523;-68
2022/10/12 11:37:18;;;;;;;0.08;0.08;;;16.20;80.60;;;;;;4154074;28;20137;-68
2022/10/12 11:40:02;;;;;;;0.00;0.00;;;16.20;80.60;;;;;;4170903;28;20515;-69
2022/10/12 11:42:43;;;;;;;0.00;0.00;;;16.30;80.40;;;;;;4170727;28;20093;-69
2022/10/12 11:45:29;;;;;;;0.00;0.00;;;16.30;79.90;;;;;;4171974;28;20399;-70
2022/10/12 11:48:14;;;;;;;0.00;0.00;;;16.40;79.70;;;;;;4175756;28;20052;-70
2022/10/12 11:50:57;;;;;;;0.00;0.00;;;16.40;79.70;;;;;;4171600;28;20052;-69
2022/10/12 11:53:52;;;;;;;0.00;0.00;;;16.40;79.50;;;;;;4188385;28;20131;-70
2022/10/12 11:56:39;;;;;;;0.00;0.00;;;16.40;79.00;;;;;;4171992;28;20172;-70
2022/10/12 11:59:27;;;;;;;0.00;0.00;;;16.40;78.70;;;;;;4185789;28;20040;-68
2022/10/12 12:02:18;;;;;;;0.00;0.00;;;16.50;78.50;;;;;;4158606;28;20060;-69
2022/10/12 12:05:01;;;;;;;0.00;0.00;;;16.50;78.30;;;;;;4175961;28;20106;-68
2022/10/12 12:07:48;;;;;;;0.00;0.00;;;16.50;78.20;;;;;;4188485;28;20214;-69
2022/10/12 12:11:05;;;;;;;0.00;0.00;;;16.50;77.60;;;;;;4160708;28;20060;-69
2022/10/12 12:13:46;;;;;;;0.00;0.00;;;16.60;78.20;;;;;;4190756;28;20109;-69
2022/10/12 12:16:31;;;;;;;0.00;0.00;;;16.60;78.30;;;;;;4191753;28;20141;-68
2022/10/12 12:19:37;;;;;;;0.00;0.00;;;16.60;78.00;;;;;;4190004;28;20185;-69
2022/10/12 12:22:23;;;;;;;0.00;0.00;;;16.70;78.50;;;;;;4183913;28;20101;-69
2022/10/12 12:25:38;;;;;;;0.00;0.00;;;16.70;78.90;;;;;;4173913;28;20052;-71
2022/10/12 12:28:23;;;;;;;0.00;0.00;;;16.70;78.90;;;;;;4143600;28;20628;-70
2022/10/12 12:31:09;;;;;;;0.30;0.30;;;16.70;78.60;;;;;;4113564;28;20057;-70
2022/10/12 12:34:02;;;;;;;0.03;0.03;;;16.70;78.10;;;;;;4177246;28;20051;-69
2022/10/12 12:36:46;;;;;;;0.47;0.47;;;16.70;78.70;;;;;;4198898;28;20054;-72
2022/10/12 12:39:30;;;;;;;0.00;0.00;;;16.80;78.80;;;;;;4196523;28;20055;-71
2022/10/12 12:42:11;;;;;;;0.00;0.00;;;16.80;78.70;;;;;;4190369;28;20044;-69
2022/10/12 12:44:54;;;;;;;0.63;0.57;;;16.80;78.10;;;;;;4178453;28;20064;-69
2022/10/12 12:47:39;;;;;;;0.00;0.00;;;16.80;78.20;;;;;;4177165;28;20051;-71
2022/10/12 12:50:34;;;;;;;0.00;0.00;;;16.80;77.60;;;;;;4190271;28;20125;-70
2022/10/12 12:53:20;;;;;;;0.00;0.00;;;16.90;77.90;;;;;;4173055;28;20051;-69
2022/10/12 12:56:05;;;;;;;0.00;0.00;;;16.90;78.10;;;;;;4161614;28;20154;-69
2022/10/12 12:59:02;;;;;;;0.00;0.00;;;16.90;77.90;;;;;;4190229;28;20434;-70
2022/10/12 13:02:05;;;;;;;0.00;0.00;;;16.90;77.70;;;;;;4159342;28;20067;-69
2022/10/12 13:05:06;;;;;;;0.00;0.00;;;16.90;77.80;;;;;;4164277;28;20047;-71
2022/10/12 13:07:57;;;;;;;0.00;0.00;;;17.00;77.40;;;;;;4159975;28;20064;-70
2022/10/12 13:10:57;;;;;;;0.00;0.00;;;17.00;77.90;;;;;;4173445;28;20064;-69
2022/10/12 13:13:57;;;;;;;0.00;0.00;;;17.00;78.10;;;;;;4173111;28;20052;-69
2022/10/12 13:17:00;;;;;;;0.10;0.10;;;17.00;78.30;;;;;;4179542;28;20060;-69
2022/10/12 13:20:06;;;;;;;0.00;0.00;;;17.10;78.40;;;;;;4174416;28;20105;-68
2022/10/12 13:22:49;;;;;;;0.00;0.00;;;17.10;78.90;;;;;;4185854;28;20430;-72
2022/10/12 13:25:34;;;;;;;0.00;0.00;;;17.10;77.80;;;;;;4172971;28;20052;-72
2022/10/12 13:28:20;;;;;;;0.00;0.00;;;17.10;77.80;;;;;;4173089;28;20074;-71
2022/10/12 13:31:04;;;;;;;0.00;0.00;;;17.20;77.30;;;;;;4173035;28;20052;-69
2022/10/12 13:33:52;;;;;;;0.35;0.35;;;17.20;78.00;;;;;;4173714;28;20056;-69
2022/10/12 13:36:45;;;;;;;0.00;0.00;;;17.20;78.30;;;;;;4188050;28;20142;-68
2022/10/12 13:39:27;;;;;;;0.00;0.00;;;17.20;78.10;;;;;;4188808;28;20086;-66
2022/10/12 13:42:13;;;;;;;0.00;0.00;;;17.30;78.30;;;;;;4189967;28;20052;-68
2022/10/12 13:44:54;;;;;;;0.00;0.00;;;17.30;78.40;;;;;;4188585;28;20097;-68
2022/10/12 13:47:42;;;;;;;0.00;0.00;;;17.30;78.20;;;;;;4169302;28;20396;-65
2022/10/12 13:50:24;;;;;;;0.00;0.00;;;17.30;78.40;;;;;;4160694;28;20055;-68
2022/10/12 13:53:14;;;;;;;0.10;0.10;;;17.40;77.20;;;;;;4172340;28;20606;-68
2022/10/12 13:56:01;;;;;;;0.00;0.00;;;17.40;77.60;;;;;;4189339;28;20043;-66
2022/10/12 13:58:42;;;;;;;0.00;0.00;;;17.40;77.50;;;;;;4189435;28;20059;-65
2022/10/12 14:01:23;;;;;;;0.00;0.00;;;17.40;77.80;;;;;;4172450;28;20047;-69
2022/10/12 14:04:06;;;;;;;0.00;0.00;;;17.40;77.70;;;;;;4172490;28;20060;-69
2022/10/12 14:06:55;;;;;;;0.00;0.00;;;17.40;78.10;;;;;;4172462;28;20388;-69
2022/10/12 14:09:41;;;;;;;0.00;0.00;;;17.50;77.30;;;;;;4172515;28;20052;-67
2022/10/12 14:12:23;;;;;;;0.00;0.00;;;17.50;77.70;;;;;;4160457;28;20048;-69
2022/10/12 14:15:06;;;;;;;0.08;0.08;;;17.50;77.40;;;;;;4171902;28;20152;-70
2022/10/12 14:17:49;;;;;;;0.00;0.00;;;17.50;76.80;;;;;;4172599;28;20055;-71
2022/10/12 14:20:33;;;;;;;0.00;0.00;;;17.50;76.00;;;;;;4173328;28;20561;-70